Latest Weather Observations for Port Hedland

IDW60801

Issued at 7:03 am WST Sunday 26 June 2016 (issued every 30 minutes, with the page automatically refreshed every 10 minutes)

About weather observations | Map of weather stations | Latest weather observations for WA | Other Formats
Station Details ID: 004032 Name: PORT HEDLAND AIRPORT Lat: -20.37 Lon: 118.63 Height: 6.4 m
Data from the previous 72 hours. | See also: Recent months at Port Hedland
Date/Time
WST
Temp
°C
App
Temp
°C
Dew
Point
°C
Rel
Hum
%
Delta-T
°C
Wind Press
QNH
hPa
Press
MSL
hPa
Rain since
9am
mm
Dir  Spd
km/h
Gust
km/h
Spd
kts
Gust
kts
26/07:00am 16.6 12.8 9.9 64 3.5 SE 20 28 11 15 1018.1 - 0.2
26/06:30am 16.5 12.8 10.0 65 3.4 SE 20 30 11 16 1017.7 - 0.2
26/06:00am 16.9 12.3 9.6 62 3.8 SE 24 32 13 17 1017.5 1017.5 0.2
26/05:30am 17.3 13.0 9.4 59 4.1 SE 22 35 12 19 1017.4 - 0.2
26/05:00am 17.2 13.6 10.0 62 3.8 SE 19 26 10 14 1017.3 - 0.2
26/04:30am 17.2 14.6 12.1 72 2.8 SSE 17 22 9 12 1017.3 - 0.2
26/04:00am 17.2 15.5 13.7 80 2.0 SSE 15 19 8 10 1017.3 - 0.2
26/03:30am 17.9 15.8 13.5 75 2.5 SE 17 20 9 11 1017.1 - 0.2
26/03:00am 18.5 16.0 13.6 73 2.8 SE 19 28 10 15 1017.1 1017.1 0.2
26/02:30am 18.9 16.6 14.2 74 2.7 SE 19 30 10 16 1017.0 - 0.2
26/02:00am 19.3 17.2 14.7 74 2.7 SE 19 24 10 13 1017.1 - 0.2
26/01:30am 19.9 17.8 14.6 71 3.1 SE 19 28 10 15 1017.2 - 0.2
26/01:00am 20.3 18.0 14.6 70 3.3 SE 20 26 11 14 1017.1 - 0.2
26/12:30am 20.5 18.8 14.7 69 3.4 SE 17 26 9 14 1017.1 - 0.2
26/12:00am 20.6 18.4 15.0 70 3.3 SE 20 26 11 14 1016.8 1016.8 0.2
 
Date/Time
WST
Temp
°C
App
Temp
°C
Dew
Point
°C
Rel
Hum
%
Delta-T
°C
Wind Press
QNH
hPa
Press
MSL
hPa
Rain since
9am
mm
Dir  Spd
km/h
Gust
km/h
Spd
kts
Gust
kts
25/11:30pm 20.7 18.8 15.3 71 3.2 SE 19 26 10 14 1016.6 - 0.2
25/11:00pm 21.0 19.2 15.4 70 3.3 SE 19 26 10 14 1016.6 - 0.2
25/10:30pm 21.4 19.8 15.9 71 3.3 SE 19 28 10 15 1016.6 - 0.2
25/10:00pm 21.9 20.4 16.8 73 3.1 SE 20 28 11 15 1016.4 - 0.2
25/09:30pm 22.0 22.0 18.0 78 2.5 SE 15 22 8 12 1016.1 - 0.2
25/09:00pm 22.3 22.0 18.3 78 2.5 SE 17 24 9 13 1015.9 1015.9 0.2
25/08:30pm 22.4 23.2 19.1 81 2.1 SSE 13 20 7 11 1015.6 - 0.2
25/08:00pm 22.5 24.1 19.2 81 2.1 SSE 9 11 5 6 1015.4 - 0.2
25/07:30pm 22.8 24.4 19.2 80 2.3 SSE 9 11 5 6 1015.1 - 0.2
25/07:00pm 23.1 24.2 18.8 77 2.7 SSE 11 13 6 7 1014.6 - 0.2
25/06:30pm 23.3 24.1 19.0 77 2.7 SSE 13 17 7 9 1014.4 - 0.2
25/06:00pm 24.1 23.9 18.4 70 3.6 S 17 20 9 11 1014.1 1014.1 0.2
25/05:30pm 24.6 24.4 18.4 68 3.9 SSW 17 22 9 12 1013.6 - 0.2
25/05:00pm 25.3 25.7 18.2 64 4.5 SSW 13 17 7 9 1012.9 - 0.2
25/04:30pm 25.5 26.5 18.6 65 4.4 S 11 15 6 8 1012.7 - 0.2
25/04:00pm 25.5 25.7 18.6 65 4.4 SSW 15 20 8 11 1012.7 - 0.2
25/03:30pm 26.0 26.1 18.4 63 4.8 S 15 20 8 11 1012.5 - 0.2
25/03:00pm 25.5 26.1 18.6 65 4.4 S 13 20 7 11 1012.5 1012.5 0.2
25/02:30pm 25.1 24.7 18.1 65 4.4 S 17 24 9 13 1012.7 - 0.2
25/02:00pm 25.0 24.7 18.2 66 4.3 S 17 24 9 13 1012.9 - 0.2
25/01:30pm 24.4 24.2 18.4 69 3.8 S 17 28 9 15 1013.3 - 0.2
25/01:00pm 22.9 22.7 18.4 76 2.8 S 17 24 9 13 1013.7 - 0.2
25/12:40pm 21.6 21.9 18.7 83 1.8 S 15 20 8 11 1014.2 - 0.2
25/12:30pm 21.1 21.1 19.0 88 1.3 S 17 22 9 12 1014.3 - 0.2
25/12:24pm 21.3 21.0 19.1 87 1.4 S 19 24 10 13 1014.4 - 0.2
25/12:00pm 21.4 20.8 18.5 83 1.8 S 19 24 10 13 1014.8 1014.8 0.2
25/11:30am 20.8 20.0 18.1 84 1.7 S 19 24 10 13 1014.8 - 0.2
25/11:00am 20.4 20.6 18.5 89 1.2 S 15 19 8 10 1015.3 - 0.2
25/10:30am 20.3 20.7 18.2 88 1.3 SSE 13 17 7 9 1015.2 - 0.2
25/10:26am 20.2 21.1 18.4 89 1.1 SSE 11 15 6 8 1015.2 - 0.2
25/10:07am 19.5 20.4 18.5 94 0.6 SSE 11 15 6 8 1015.3 - 0.2
25/10:00am 19.7 20.7 18.7 94 0.6 SE 11 15 6 8 1015.4 - 0.0
25/09:30am 19.4 19.8 18.1 92 0.8 SSE 13 17 7 9 1015.6 - 0.0
25/09:15am 19.3 18.9 17.2 88 1.3 SSE 15 20 8 11 1015.6 - 0.0
25/09:00am 19.8 19.6 16.6 82 1.9 SSE 13 17 7 9 1015.3 1015.3 3.2
25/08:30am 19.5 19.5 17.2 86 1.4 ESE 13 17 7 9 1014.9 - 3.2
25/08:00am 18.9 18.1 17.1 89 1.1 ESE 17 20 9 11 1014.4 - 3.2
25/07:54am 18.9 18.2 17.3 90 1.0 ESE 17 20 9 11 1014.3 - 3.2
25/07:30am 18.9 19.0 17.4 91 0.9 ESE 13 17 7 9 1014.4 - 3.0
25/07:02am 19.4 21.1 18.4 94 0.6 SE 7 9 4 5 1014.4 - 2.8
25/07:00am 19.3 21.0 18.5 95 0.5 SSE 7 9 4 5 1014.4 - 2.8
25/06:58am 19.3 20.9 18.3 94 0.6 SSE 7 9 4 5 1014.4 - 2.8
25/06:37am 19.6 21.4 18.3 92 0.8 SW 6 9 3 5 1014.1 - 2.4
25/06:30am 19.8 21.4 18.2 90 1.0 SSW 7 9 4 5 1014.0 - 2.0
25/06:00am 19.8 20.9 17.9 89 1.2 SE 9 11 5 6 1013.4 1013.4 2.0
25/05:30am 19.7 21.2 18.1 90 1.0 SSE 7 11 4 6 1013.3 - 2.0
25/05:00am 19.7 20.5 18.1 90 1.0 SSE 11 15 6 8 1013.1 - 2.0
25/04:30am 19.5 19.5 18.0 91 0.9 SSE 15 19 8 10 1013.2 - 2.0
25/04:00am 19.5 19.2 18.2 92 0.8 SSE 17 20 9 11 1012.8 - 2.0
25/03:30am 19.8 20.1 18.7 93 0.7 S 15 20 8 11 1013.1 - 2.0
25/03:00am 19.8 19.8 19.0 95 0.5 S 17 22 9 12 1013.3 1013.3 1.8
25/02:54am 19.9 20.0 19.1 95 0.5 S 17 22 9 12 1013.4 - 1.8
25/02:38am 20.2 20.2 18.9 92 0.8 S 17 22 9 12 1013.5 - 1.6
25/02:30am 20.6 21.5 19.3 92 0.8 SSW 13 19 7 10 1013.6 - 1.0
25/02:17am 21.0 21.8 19.1 89 1.2 SSW 13 17 7 9 1013.4 - 0.6
25/02:00am 21.6 22.7 18.9 84 1.7 S 11 13 6 7 1013.3 - 0.2
25/01:30am 21.8 23.1 19.4 86 1.5 S 11 13 6 7 1013.6 - 0.2
25/01:00am 21.6 23.6 19.9 90 1.1 SSW 9 11 5 6 1013.6 - 0.2
25/12:30am 21.7 23.4 20.1 91 1.0 SSW 11 13 6 7 1013.7 - 0.2
25/12:00am 21.6 25.6 20.5 93 0.7 CALM 0 0 0 0 1013.8 1013.8 0.2
 
Date/Time
WST
Temp
°C
App
Temp
°C
Dew
Point
°C
Rel
Hum
%
Delta-T
°C
Wind Press
QNH
hPa
Press
MSL
hPa
Rain since
9am
mm
Dir  Spd
km/h
Gust
km/h
Spd
kts
Gust
kts
24/11:30pm 21.3 24.7 20.2 93 0.7 NW 2 6 1 3 1013.8 - 0.2
24/11:00pm 21.2 23.6 20.1 93 0.7 N 7 9 4 5 1013.9 - 0.2
24/10:30pm 20.9 24.4 19.5 92 0.9 CALM 0 0 0 0 1014.0 - 0.2
24/10:00pm 21.2 24.8 19.8 92 0.9 CALM 0 0 0 0 1014.0 - 0.2
24/09:30pm 21.4 25.1 20.0 92 0.9 CALM 0 0 0 0 1014.0 - 0.2
24/09:00pm 21.6 25.3 19.9 90 1.1 CALM 0 0 0 0 1014.0 1014.0 0.2
24/08:30pm 21.9 25.5 19.7 87 1.4 CALM 0 0 0 0 - - 0.2
24/08:00pm 22.2 25.8 19.7 86 1.6 CALM 0 0 0 0 1013.8 - 0.2
24/07:30pm 22.4 24.8 19.7 85 1.7 WNW 6 6 3 3 1013.8 - 0.2
24/07:00pm 22.6 25.0 19.6 83 1.9 N 6 7 3 4 1013.5 - 0.2
24/06:30pm 22.9 24.4 19.0 78 2.5 N 9 11 5 6 1013.2 - 0.2
24/06:00pm 22.9 24.8 19.0 78 2.5 N 7 9 4 5 1013.2 1013.2 0.2
24/05:30pm 23.8 25.9 18.9 74 3.1 NNW 6 7 3 4 1013.0 - 0.2
24/05:00pm 24.6 26.2 18.3 68 4.0 N 7 11 4 6 1012.8 - 0.2
24/04:30pm 25.5 26.6 18.0 63 4.7 N 9 11 5 6 1012.7 - 0.2
24/04:00pm 24.7 25.0 17.8 65 4.3 N 13 15 7 8 1012.6 - 0.2
24/03:30pm 25.5 26.1 17.7 62 4.9 N 11 15 6 8 1012.4 - 0.2
24/03:00pm 25.6 26.5 17.6 61 5.0 N 9 13 5 7 1012.3 1012.3 0.2
24/02:30pm 25.9 26.5 17.6 60 5.2 ENE 11 15 6 8 1012.3 - 0.2
24/02:00pm 25.5 25.6 17.5 61 5.0 NE 13 19 7 10 1012.6 - 0.2
24/01:30pm 25.5 24.3 17.1 59 5.2 ENE 19 24 10 13 1012.7 - 0.2
24/01:00pm 25.8 24.2 17.5 60 5.2 ENE 22 28 12 15 1012.8 - 0.2
24/12:30pm 25.0 23.7 17.3 62 4.8 ENE 20 26 11 14 1013.3 - 0.2
24/12:00pm 24.1 22.4 17.3 65 4.2 ENE 22 30 12 16 1014.0 1014.0 0.2
24/11:30am 23.1 22.0 17.8 72 3.3 ENE 20 26 11 14 1014.5 - 0.2
24/11:00am 21.7 20.2 17.7 78 2.5 ESE 22 30 12 16 1014.9 - 0.2
24/10:30am 20.3 19.3 17.9 86 1.5 ESE 20 32 11 17 1015.1 - 0.2
24/10:00am 19.5 18.4 17.7 89 1.1 ESE 20 28 11 15 1015.6 - 0.2
24/09:30am 19.0 17.9 17.4 90 1.0 ESE 19 26 10 14 1015.8 - 0.0
24/09:00am 18.9 18.2 17.3 90 1.0 SE 17 24 9 13 1016.4 1016.4 2.4
24/08:30am 19.0 17.9 17.2 89 1.1 SE 19 24 10 13 1016.1 - 2.4
24/08:00am 18.6 17.7 16.9 90 1.0 ESE 17 26 9 14 1015.6 - 2.4
24/07:30am 18.3 17.9 17.1 93 0.7 ESE 15 19 8 10 1015.6 - 2.4
24/07:00am 18.1 17.8 17.3 95 0.5 SE 15 20 8 11 1015.2 - 2.0
24/06:30am 18.3 18.7 17.3 94 0.6 ESE 11 17 6 9 1014.9 - 1.4
24/06:00am 18.4 18.5 17.4 94 0.6 ESE 13 19 7 10 1014.5 1014.5 1.0
24/05:30am 18.7 19.3 17.7 94 0.6 SE 11 15 6 8 1014.4 - 0.8
24/05:00am 18.9 19.8 17.6 92 0.8 ESE 9 13 5 7 1014.2 - 0.8
24/04:30am 19.0 18.6 17.2 89 1.1 ESE 15 20 8 11 1014.1 - 0.6
24/04:00am 19.0 18.7 17.4 90 1.0 SE 15 20 8 11 1014.2 - 0.6
24/03:30am 18.9 19.2 17.8 93 0.7 SE 13 19 7 10 1014.4 - 0.6
24/03:00am 18.9 18.3 17.6 92 0.8 SE 17 20 9 11 1014.5 1014.5 0.2
24/02:30am 19.6 19.4 17.6 88 1.2 SE 15 22 8 12 1014.4 - 0.0
24/02:00am 20.2 19.3 16.9 81 2.0 SE 17 24 9 13 1014.5 - 0.0
24/01:30am 20.3 19.2 17.2 82 1.9 SE 19 24 10 13 1014.7 - 0.0
24/01:00am 20.4 19.3 17.3 82 1.9 SSE 19 24 10 13 1014.8 - 0.0
24/12:30am 20.6 19.7 17.8 84 1.7 SSE 19 24 10 13 1014.8 - 0.0
24/12:00am 20.7 19.7 18.0 84 1.7 SSE 20 26 11 14 1014.8 1014.8 0.0
 
Date/Time
WST
Temp
°C
App
Temp
°C
Dew
Point
°C
Rel
Hum
%
Delta-T
°C
Wind Press
QNH
hPa
Press
MSL
hPa
Rain since
9am
mm
Dir  Spd
km/h
Gust
km/h
Spd
kts
Gust
kts
23/11:30pm 20.9 21.7 19.0 89 1.2 SE 13 17 7 9 1014.7 - 0.0
23/11:00pm 20.7 20.7 18.9 89 1.1 SSE 17 20 9 11 1014.7 - 0.0
23/10:30pm 21.0 21.7 18.9 88 1.3 SSE 13 17 7 9 1014.8 - 0.0
23/10:00pm 21.2 21.0 18.6 85 1.6 SSE 17 20 9 11 1014.7 - 0.0
23/09:30pm 21.5 21.1 18.8 84 1.7 SSE 19 26 10 14 1014.3 - 0.0
23/09:00pm 21.8 22.7 19.3 86 1.6 S 13 17 7 9 1014.2 1014.2 0.0
23/08:30pm 21.9 22.7 19.1 84 1.8 S 13 17 7 9 1014.1 - 0.0
23/08:00pm 22.5 23.8 19.2 81 2.1 SSE 11 15 6 8 1013.7 - 0.0
23/07:30pm 22.5 23.4 19.2 81 2.1 SSE 13 19 7 10 1013.6 - 0.0
23/07:00pm 22.5 22.5 19.0 80 2.2 SSE 17 22 9 12 1013.4 - 0.0
23/06:30pm 22.5 23.0 19.2 81 2.1 SSE 15 20 8 11 1013.2 - 0.0
23/06:00pm 22.6 22.9 19.5 82 2.0 SSE 17 24 9 13 1012.9 1012.9 0.0
23/05:30pm 22.7 22.8 19.2 80 2.2 SSE 17 22 9 12 1012.5 - 0.0
23/05:00pm 22.9 23.0 19.1 79 2.4 SE 17 24 9 13 1012.4 - 0.0
23/04:30pm 23.0 22.8 19.4 80 2.3 SE 19 26 10 14 1012.2 - 0.0
23/04:00pm 23.1 23.2 19.2 79 2.5 SE 17 24 9 13 1012.0 - 0.0
23/03:30pm 22.9 22.7 19.3 80 2.3 SE 19 24 10 13 1012.0 - 0.0
23/03:06pm 22.9 23.2 19.5 81 2.2 SE 17 22 9 12 1011.9 - 0.0
23/03:00pm 22.9 23.2 19.5 81 2.2 SE 17 22 9 12 1011.9 1011.9 0.0
23/02:30pm 22.5 22.8 19.5 83 1.9 SE 17 22 9 12 1012.0 - 0.0
23/02:00pm 22.7 23.0 19.7 83 1.9 SE 17 20 9 11 1012.1 - 0.0
23/01:30pm 22.2 22.0 19.7 86 1.6 SE 20 26 11 14 1012.2 - 0.0
23/01:00pm 22.1 22.2 19.9 87 1.4 SE 19 24 10 13 1012.6 - 0.0
23/12:30pm 21.6 22.1 20.0 91 1.0 SE 17 24 9 13 1013.3 - 0.0
23/12:00pm 21.7 21.7 19.7 88 1.3 SE 19 24 10 13 1013.6 1013.6 0.0
23/11:30am 21.8 21.4 19.4 86 1.5 SE 20 26 11 14 1014.0 - 0.0
23/11:00am 21.6 21.1 19.2 86 1.5 ESE 20 30 11 16 1014.1 - 0.0
23/10:46am 21.4 20.1 19.0 86 1.5 ESE 24 28 13 15 1014.3 - 0.0
23/10:30am 21.2 20.3 19.0 87 1.4 SE 22 30 12 16 1014.6 - 0.0
23/10:00am 20.8 20.3 19.2 90 1.0 SE 20 28 11 15 1014.7 - 0.0
23/09:55am 20.8 20.3 19.2 90 1.0 SE 20 26 11 14 1014.7 - 0.0
23/09:30am 20.7 20.5 19.4 92 0.8 SE 19 26 10 14 1014.8 - 0.0
23/09:00am 20.4 20.7 19.6 95 0.5 SE 17 24 9 13 1014.9 1014.9 2.8
23/08:51am 20.2 20.5 19.6 96 0.4 SE 17 22 9 12 1014.8 - 2.8
23/08:30am 20.3 21.1 19.8 97 0.3 SE 15 20 8 11 1014.6 - 2.6
23/08:02am 20.0 21.0 19.5 97 0.3 SSE 13 17 7 9 1014.3 - 2.4
23/08:00am 20.1 21.1 19.5 96 0.4 SSE 13 17 7 9 1014.3 - 2.4
23/07:30am 19.9 20.4 19.3 96 0.4 SE 15 22 8 12 1013.9 - 2.4

Other Formats:

Comma delimited format used in spreadsheet applications
http://www.bom.gov.au/fwo/IDW60801/IDW60801.94312.axf

JavaScript Object Notation format (JSON) in row-major order
http://www.bom.gov.au/fwo/IDW60801/IDW60801.94312.json